sensor_id;sensor_type;location;lat;lon;timestamp;temperature;humidity
38265;DHT22;24062;47.480;8.768;2023-03-23T00:01:00;9.60;61.30
38265;DHT22;24062;47.480;8.768;2023-03-23T00:03:27;9.50;61.30
38265;DHT22;24062;47.480;8.768;2023-03-23T00:05:57;9.50;61.50
38265;DHT22;24062;47.480;8.768;2023-03-23T00:08:30;9.50;61.70
38265;DHT22;24062;47.480;8.768;2023-03-23T00:10:57;9.40;61.80
38265;DHT22;24062;47.480;8.768;2023-03-23T00:13:28;9.30;61.70
38265;DHT22;24062;47.480;8.768;2023-03-23T00:15:56;9.30;62.10
38265;DHT22;24062;47.480;8.768;2023-03-23T00:18:24;9.20;62.10
38265;DHT22;24062;47.480;8.768;2023-03-23T00:20:52;9.20;62.40
38265;DHT22;24062;47.480;8.768;2023-03-23T00:23:22;9.20;62.40
38265;DHT22;24062;47.480;8.768;2023-03-23T00:25:50;9.20;62.70
38265;DHT22;24062;47.480;8.768;2023-03-23T00:28:20;9.10;62.90
38265;DHT22;24062;47.480;8.768;2023-03-23T00:30:56;9.00;63.00
38265;DHT22;24062;47.480;8.768;2023-03-23T00:33:23;9.10;63.30
38265;DHT22;24062;47.480;8.768;2023-03-23T00:35:51;9.10;63.20
38265;DHT22;24062;47.480;8.768;2023-03-23T00:38:20;9.10;63.40
38265;DHT22;24062;47.480;8.768;2023-03-23T00:40:47;9.00;63.50
38265;DHT22;24062;47.480;8.768;2023-03-23T00:43:14;8.90;63.80
38265;DHT22;24062;47.480;8.768;2023-03-23T00:45:42;8.80;63.90
38265;DHT22;24062;47.480;8.768;2023-03-23T00:48:11;8.90;64.10
38265;DHT22;24062;47.480;8.768;2023-03-23T00:50:39;9.00;64.40
38265;DHT22;24062;47.480;8.768;2023-03-23T00:53:06;9.10;64.40
38265;DHT22;24062;47.480;8.768;2023-03-23T00:55:33;9.10;64.50
38265;DHT22;24062;47.480;8.768;2023-03-23T00:58:00;9.20;64.30
38265;DHT22;24062;47.480;8.768;2023-03-23T01:00:27;9.20;64.30
38265;DHT22;24062;47.480;8.768;2023-03-23T01:02:54;9.20;64.30
38265;DHT22;24062;47.480;8.768;2023-03-23T01:05:22;9.20;64.50
38265;DHT22;24062;47.480;8.768;2023-03-23T01:07:49;9.20;64.30
38265;DHT22;24062;47.480;8.768;2023-03-23T01:10:16;9.20;64.30
38265;DHT22;24062;47.480;8.768;2023-03-23T01:12:44;9.20;64.50
38265;DHT22;24062;47.480;8.768;2023-03-23T01:15:16;9.20;64.60
38265;DHT22;24062;47.480;8.768;2023-03-23T01:17:43;9.20;65.50
38265;DHT22;24062;47.480;8.768;2023-03-23T01:20:12;9.20;64.90
38265;DHT22;24062;47.480;8.768;2023-03-23T01:22:42;9.10;64.90
38265;DHT22;24062;47.480;8.768;2023-03-23T01:25:10;9.10;65.10
38265;DHT22;24062;47.480;8.768;2023-03-23T01:27:37;9.00;65.80
38265;DHT22;24062;47.480;8.768;2023-03-23T01:30:06;9.00;65.40
38265;DHT22;24062;47.480;8.768;2023-03-23T01:32:33;8.90;65.70
38265;DHT22;24062;47.480;8.768;2023-03-23T01:35:00;8.90;65.90
38265;DHT22;24062;47.480;8.768;2023-03-23T01:37:27;8.90;66.30
38265;DHT22;24062;47.480;8.768;2023-03-23T01:39:56;8.90;66.40
38265;DHT22;24062;47.480;8.768;2023-03-23T01:42:24;8.90;66.40
38265;DHT22;24062;47.480;8.768;2023-03-23T01:45:24;8.80;66.50
38265;DHT22;24062;47.480;8.768;2023-03-23T01:47:55;8.80;66.70
38265;DHT22;24062;47.480;8.768;2023-03-23T01:50:23;8.80;67.00
38265;DHT22;24062;47.480;8.768;2023-03-23T01:52:54;8.80;67.00
38265;DHT22;24062;47.480;8.768;2023-03-23T01:55:24;9.00;67.20
38265;DHT22;24062;47.480;8.768;2023-03-23T01:57:52;9.10;67.10
38265;DHT22;24062;47.480;8.768;2023-03-23T02:00:20;9.10;66.90
38265;DHT22;24062;47.480;8.768;2023-03-23T02:02:49;9.00;67.00
38265;DHT22;24062;47.480;8.768;2023-03-23T02:05:24;9.00;67.40
38265;DHT22;24062;47.480;8.768;2023-03-23T02:07:52;8.90;67.60
38265;DHT22;24062;47.480;8.768;2023-03-23T02:10:20;9.00;67.80
38265;DHT22;24062;47.480;8.768;2023-03-23T02:12:48;9.10;67.70
38265;DHT22;24062;47.480;8.768;2023-03-23T02:15:15;9.20;67.80
38265;DHT22;24062;47.480;8.768;2023-03-23T02:17:46;9.30;67.80
38265;DHT22;24062;47.480;8.768;2023-03-23T02:20:29;9.40;67.80
38265;DHT22;24062;47.480;8.768;2023-03-23T02:23:30;9.40;67.60
38265;DHT22;24062;47.480;8.768;2023-03-23T02:26:08;9.40;67.60
38265;DHT22;24062;47.480;8.768;2023-03-23T02:29:07;9.40;67.60
38265;DHT22;24062;47.480;8.768;2023-03-23T02:31:45;9.30;67.90
38265;DHT22;24062;47.480;8.768;2023-03-23T02:34:17;9.20;67.90
38265;DHT22;24062;47.480;8.768;2023-03-23T02:36:48;9.10;68.30
38265;DHT22;24062;47.480;8.768;2023-03-23T02:39:20;9.10;68.50
38265;DHT22;24062;47.480;8.768;2023-03-23T02:41:52;9.20;68.60
38265;DHT22;24062;47.480;8.768;2023-03-23T02:44:22;9.30;68.70
38265;DHT22;24062;47.480;8.768;2023-03-23T02:46:51;9.50;69.10
38265;DHT22;24062;47.480;8.768;2023-03-23T02:49:21;9.50;69.00
38265;DHT22;24062;47.480;8.768;2023-03-23T02:51:50;9.50;68.80
38265;DHT22;24062;47.480;8.768;2023-03-23T02:54:19;9.50;68.80
38265;DHT22;24062;47.480;8.768;2023-03-23T02:56:49;9.40;68.70
38265;DHT22;24062;47.480;8.768;2023-03-23T02:59:17;9.40;68.80
38265;DHT22;24062;47.480;8.768;2023-03-23T03:02:12;9.50;69.10
38265;DHT22;24062;47.480;8.768;2023-03-23T03:04:45;9.40;69.40
38265;DHT22;24062;47.480;8.768;2023-03-23T03:07:35;9.30;69.50
38265;DHT22;24062;47.480;8.768;2023-03-23T03:10:10;9.50;69.80
38265;DHT22;24062;47.480;8.768;2023-03-23T03:12:46;9.60;69.70
38265;DHT22;24062;47.480;8.768;2023-03-23T03:15:23;9.70;69.60
38265;DHT22;24062;47.480;8.768;2023-03-23T03:17:55;9.80;69.50
38265;DHT22;24062;47.480;8.768;2023-03-23T03:20:26;9.80;69.20
38265;DHT22;24062;47.480;8.768;2023-03-23T03:22:56;9.90;69.20
38265;DHT22;24062;47.480;8.768;2023-03-23T03:25:23;9.90;69.10
38265;DHT22;24062;47.480;8.768;2023-03-23T03:27:53;9.90;69.00
38265;DHT22;24062;47.480;8.768;2023-03-23T03:30:25;9.90;68.90
38265;DHT22;24062;47.480;8.768;2023-03-23T03:32:53;9.90;68.90
38265;DHT22;24062;47.480;8.768;2023-03-23T03:35:21;10.00;67.90
38265;DHT22;24062;47.480;8.768;2023-03-23T03:37:50;10.10;67.90
38265;DHT22;24062;47.480;8.768;2023-03-23T03:40:19;10.10;67.80
38265;DHT22;24062;47.480;8.768;2023-03-23T03:42:46;10.20;67.60
38265;DHT22;24062;47.480;8.768;2023-03-23T03:45:15;10.20;67.70
38265;DHT22;24062;47.480;8.768;2023-03-23T03:47:43;10.30;67.70
38265;DHT22;24062;47.480;8.768;2023-03-23T03:50:10;10.30;67.50
38265;DHT22;24062;47.480;8.768;2023-03-23T03:52:38;10.40;67.40
38265;DHT22;24062;47.480;8.768;2023-03-23T03:55:08;10.40;67.20
38265;DHT22;24062;47.480;8.768;2023-03-23T03:57:36;10.50;67.20
38265;DHT22;24062;47.480;8.768;2023-03-23T04:00:04;10.60;67.20
38265;DHT22;24062;47.480;8.768;2023-03-23T04:02:41;10.60;66.90
38265;DHT22;24062;47.480;8.768;2023-03-23T04:05:08;10.60;66.70
38265;DHT22;24062;47.480;8.768;2023-03-23T04:07:36;10.70;66.30
38265;DHT22;24062;47.480;8.768;2023-03-23T04:10:07;10.70;66.60
38265;DHT22;24062;47.480;8.768;2023-03-23T04:12:35;10.80;66.50
38265;DHT22;24062;47.480;8.768;2023-03-23T04:15:03;10.80;66.40
38265;DHT22;24062;47.480;8.768;2023-03-23T04:17:30;10.70;66.00
38265;DHT22;24062;47.480;8.768;2023-03-23T04:19:58;10.70;66.20
38265;DHT22;24062;47.480;8.768;2023-03-23T04:22:37;10.80;66.40
38265;DHT22;24062;47.480;8.768;2023-03-23T04:25:04;10.80;66.00
38265;DHT22;24062;47.480;8.768;2023-03-23T04:27:33;10.80;66.00
38265;DHT22;24062;47.480;8.768;2023-03-23T04:30:01;10.80;66.20
38265;DHT22;24062;47.480;8.768;2023-03-23T04:32:30;10.80;66.10
38265;DHT22;24062;47.480;8.768;2023-03-23T04:34:57;10.70;66.00
38265;DHT22;24062;47.480;8.768;2023-03-23T04:37:26;10.70;66.10
38265;DHT22;24062;47.480;8.768;2023-03-23T04:39:55;10.70;66.30
38265;DHT22;24062;47.480;8.768;2023-03-23T04:42:26;10.70;66.90
38265;DHT22;24062;47.480;8.768;2023-03-23T04:44:55;10.60;66.10
38265;DHT22;24062;47.480;8.768;2023-03-23T04:47:22;10.50;66.00
38265;DHT22;24062;47.480;8.768;2023-03-23T04:49:49;10.50;66.20
38265;DHT22;24062;47.480;8.768;2023-03-23T04:52:17;10.50;66.20
38265;DHT22;24062;47.480;8.768;2023-03-23T04:54:46;10.50;66.10
38265;DHT22;24062;47.480;8.768;2023-03-23T04:57:13;10.50;65.90
38265;DHT22;24062;47.480;8.768;2023-03-23T04:59:41;10.40;66.00
38265;DHT22;24062;47.480;8.768;2023-03-23T05:02:10;10.30;66.10
38265;DHT22;24062;47.480;8.768;2023-03-23T05:04:38;10.30;66.20
38265;DHT22;24062;47.480;8.768;2023-03-23T05:07:06;10.40;66.30
38265;DHT22;24062;47.480;8.768;2023-03-23T05:09:34;10.40;66.30
38265;DHT22;24062;47.480;8.768;2023-03-23T05:12:04;10.40;66.30
38265;DHT22;24062;47.480;8.768;2023-03-23T05:14:31;10.40;66.30
38265;DHT22;24062;47.480;8.768;2023-03-23T05:16:58;10.50;66.30
38265;DHT22;24062;47.480;8.768;2023-03-23T05:19:27;10.40;66.30
38265;DHT22;24062;47.480;8.768;2023-03-23T05:21:56;10.50;66.60
38265;DHT22;24062;47.480;8.768;2023-03-23T05:24:28;10.50;66.50
38265;DHT22;24062;47.480;8.768;2023-03-23T05:26:56;10.50;66.40
38265;DHT22;24062;47.480;8.768;2023-03-23T05:29:23;10.50;66.40
38265;DHT22;24062;47.480;8.768;2023-03-23T05:31:51;10.50;66.60
38265;DHT22;24062;47.480;8.768;2023-03-23T05:34:21;10.50;66.70
38265;DHT22;24062;47.480;8.768;2023-03-23T05:36:49;10.70;67.00
38265;DHT22;24062;47.480;8.768;2023-03-23T05:39:19;10.70;66.80
38265;DHT22;24062;47.480;8.768;2023-03-23T05:41:46;10.80;66.90
38265;DHT22;24062;47.480;8.768;2023-03-23T05:44:13;10.90;66.90
38265;DHT22;24062;47.480;8.768;2023-03-23T05:46:40;10.90;66.70
38265;DHT22;24062;47.480;8.768;2023-03-23T05:49:07;10.90;66.70
38265;DHT22;24062;47.480;8.768;2023-03-23T05:51:34;10.90;66.80
38265;DHT22;24062;47.480;8.768;2023-03-23T05:54:03;10.90;66.70
38265;DHT22;24062;47.480;8.768;2023-03-23T05:56:30;10.90;66.60
38265;DHT22;24062;47.480;8.768;2023-03-23T05:58:57;10.90;67.10
38265;DHT22;24062;47.480;8.768;2023-03-23T06:01:24;11.10;67.20
38265;DHT22;24062;47.480;8.768;2023-03-23T06:03:51;11.10;67.00
38265;DHT22;24062;47.480;8.768;2023-03-23T06:06:19;11.20;67.10
38265;DHT22;24062;47.480;8.768;2023-03-23T06:08:47;11.20;67.20
38265;DHT22;24062;47.480;8.768;2023-03-23T06:11:17;11.30;66.10
38265;DHT22;24062;47.480;8.768;2023-03-23T06:13:44;11.70;65.60
38265;DHT22;24062;47.480;8.768;2023-03-23T06:16:11;12.00;64.80
38265;DHT22;24062;47.480;8.768;2023-03-23T06:18:38;12.30;63.80
38265;DHT22;24062;47.480;8.768;2023-03-23T06:21:06;12.50;63.60
38265;DHT22;24062;47.480;8.768;2023-03-23T06:23:33;12.70;62.40
38265;DHT22;24062;47.480;8.768;2023-03-23T06:26:02;12.80;62.40
38265;DHT22;24062;47.480;8.768;2023-03-23T06:28:32;12.90;61.50
38265;DHT22;24062;47.480;8.768;2023-03-23T06:31:00;13.00;61.90
38265;DHT22;24062;47.480;8.768;2023-03-23T06:33:27;13.20;59.50
38265;DHT22;24062;47.480;8.768;2023-03-23T06:35:54;13.40;59.30
38265;DHT22;24062;47.480;8.768;2023-03-23T06:38:23;13.50;60.20
38265;DHT22;24062;47.480;8.768;2023-03-23T06:40:51;13.60;58.90
38265;DHT22;24062;47.480;8.768;2023-03-23T06:43:18;13.70;58.50
38265;DHT22;24062;47.480;8.768;2023-03-23T06:45:47;13.90;57.90
38265;DHT22;24062;47.480;8.768;2023-03-23T06:48:14;14.00;57.90
38265;DHT22;24062;47.480;8.768;2023-03-23T06:50:42;14.10;57.30
38265;DHT22;24062;47.480;8.768;2023-03-23T06:53:10;14.20;57.20
38265;DHT22;24062;47.480;8.768;2023-03-23T06:55:37;14.40;57.50
38265;DHT22;24062;47.480;8.768;2023-03-23T06:58:04;14.60;57.50
38265;DHT22;24062;47.480;8.768;2023-03-23T07:00:32;14.70;56.30
38265;DHT22;24062;47.480;8.768;2023-03-23T07:03:00;14.80;55.90
38265;DHT22;24062;47.480;8.768;2023-03-23T07:05:28;14.80;55.60
38265;DHT22;24062;47.480;8.768;2023-03-23T07:07:55;14.90;55.40
38265;DHT22;24062;47.480;8.768;2023-03-23T07:10:22;15.00;54.80
38265;DHT22;24062;47.480;8.768;2023-03-23T07:12:50;15.00;54.60
38265;DHT22;24062;47.480;8.768;2023-03-23T07:15:17;15.00;53.80
38265;DHT22;24062;47.480;8.768;2023-03-23T07:17:44;15.10;53.80
38265;DHT22;24062;47.480;8.768;2023-03-23T07:20:14;15.20;54.00
38265;DHT22;24062;47.480;8.768;2023-03-23T07:22:41;15.30;53.70
38265;DHT22;24062;47.480;8.768;2023-03-23T07:25:08;15.40;53.80
38265;DHT22;24062;47.480;8.768;2023-03-23T07:27:36;15.60;54.10
38265;DHT22;24062;47.480;8.768;2023-03-23T07:30:04;15.70;53.40
38265;DHT22;24062;47.480;8.768;2023-03-23T07:32:31;15.90;53.90
38265;DHT22;24062;47.480;8.768;2023-03-23T07:34:58;16.00;53.80
38265;DHT22;24062;47.480;8.768;2023-03-23T07:37:26;16.20;52.90
38265;DHT22;24062;47.480;8.768;2023-03-23T07:39:54;16.20;53.10
38265;DHT22;24062;47.480;8.768;2023-03-23T07:42:21;16.20;51.50
38265;DHT22;24062;47.480;8.768;2023-03-23T07:44:48;16.30;52.40
38265;DHT22;24062;47.480;8.768;2023-03-23T07:47:15;16.40;52.60
38265;DHT22;24062;47.480;8.768;2023-03-23T07:49:43;16.60;51.80
38265;DHT22;24062;47.480;8.768;2023-03-23T07:52:10;16.70;52.00
38265;DHT22;24062;47.480;8.768;2023-03-23T07:54:40;16.70;51.60
38265;DHT22;24062;47.480;8.768;2023-03-23T07:57:07;16.80;52.20
38265;DHT22;24062;47.480;8.768;2023-03-23T07:59:34;16.90;51.10
38265;DHT22;24062;47.480;8.768;2023-03-23T08:02:01;16.80;51.20
38265;DHT22;24062;47.480;8.768;2023-03-23T08:04:29;16.70;51.00
38265;DHT22;24062;47.480;8.768;2023-03-23T08:07:02;16.80;51.30
38265;DHT22;24062;47.480;8.768;2023-03-23T08:09:29;16.80;50.40
38265;DHT22;24062;47.480;8.768;2023-03-23T08:11:58;16.70;50.10
38265;DHT22;24062;47.480;8.768;2023-03-23T08:14:25;16.60;49.80
38265;DHT22;24062;47.480;8.768;2023-03-23T08:16:53;16.50;49.70
38265;DHT22;24062;47.480;8.768;2023-03-23T08:19:21;16.40;49.20
38265;DHT22;24062;47.480;8.768;2023-03-23T08:21:48;16.30;49.50
38265;DHT22;24062;47.480;8.768;2023-03-23T08:24:15;16.40;50.20
38265;DHT22;24062;47.480;8.768;2023-03-23T08:26:42;16.60;50.20
38265;DHT22;24062;47.480;8.768;2023-03-23T08:29:10;16.60;49.60
38265;DHT22;24062;47.480;8.768;2023-03-23T08:31:38;16.60;49.10
38265;DHT22;24062;47.480;8.768;2023-03-23T08:34:05;16.60;49.00
38265;DHT22;24062;47.480;8.768;2023-03-23T08:36:32;16.50;48.60
38265;DHT22;24062;47.480;8.768;2023-03-23T08:38:59;16.50;49.40
38265;DHT22;24062;47.480;8.768;2023-03-23T08:41:26;16.60;48.80
38265;DHT22;24062;47.480;8.768;2023-03-23T08:43:53;16.70;49.10
38265;DHT22;24062;47.480;8.768;2023-03-23T08:46:22;16.90;49.70
38265;DHT22;24062;47.480;8.768;2023-03-23T08:48:49;17.20;50.00
38265;DHT22;24062;47.480;8.768;2023-03-23T08:51:16;17.50;49.40
38265;DHT22;24062;47.480;8.768;2023-03-23T08:53:43;17.60;48.50
38265;DHT22;24062;47.480;8.768;2023-03-23T08:56:11;17.70;48.70
38265;DHT22;24062;47.480;8.768;2023-03-23T08:58:39;17.70;48.40
38265;DHT22;24062;47.480;8.768;2023-03-23T09:01:07;17.80;48.40
38265;DHT22;24062;47.480;8.768;2023-03-23T09:03:36;17.90;49.30
38265;DHT22;24062;47.480;8.768;2023-03-23T09:06:05;18.10;49.00
38265;DHT22;24062;47.480;8.768;2023-03-23T09:08:33;18.10;48.20
38265;DHT22;24062;47.480;8.768;2023-03-23T09:11:01;18.10;48.10
38265;DHT22;24062;47.480;8.768;2023-03-23T09:13:29;18.30;47.70
38265;DHT22;24062;47.480;8.768;2023-03-23T09:15:57;18.20;47.50
38265;DHT22;24062;47.480;8.768;2023-03-23T09:18:24;18.10;47.10
38265;DHT22;24062;47.480;8.768;2023-03-23T09:20:53;17.90;47.40
38265;DHT22;24062;47.480;8.768;2023-03-23T09:23:20;17.90;47.40
38265;DHT22;24062;47.480;8.768;2023-03-23T09:25:48;18.00;48.10
38265;DHT22;24062;47.480;8.768;2023-03-23T09:28:15;18.10;47.80
38265;DHT22;24062;47.480;8.768;2023-03-23T09:30:41;18.30;48.00
38265;DHT22;24062;47.480;8.768;2023-03-23T09:33:09;18.40;47.20
38265;DHT22;24062;47.480;8.768;2023-03-23T09:35:36;18.30;47.10
38265;DHT22;24062;47.480;8.768;2023-03-23T09:38:06;18.20;46.90
38265;DHT22;24062;47.480;8.768;2023-03-23T09:40:43;18.10;47.30
38265;DHT22;24062;47.480;8.768;2023-03-23T09:43:29;18.20;47.70
38265;DHT22;24062;47.480;8.768;2023-03-23T09:46:07;18.20;46.60
38265;DHT22;24062;47.480;8.768;2023-03-23T09:48:46;18.20;47.10
38265;DHT22;24062;47.480;8.768;2023-03-23T09:51:22;18.40;46.80
38265;DHT22;24062;47.480;8.768;2023-03-23T09:53:55;18.40;46.90
38265;DHT22;24062;47.480;8.768;2023-03-23T09:56:23;18.40;46.80
38265;DHT22;24062;47.480;8.768;2023-03-23T09:58:55;18.60;46.80
38265;DHT22;24062;47.480;8.768;2023-03-23T10:01:27;18.60;46.30
38265;DHT22;24062;47.480;8.768;2023-03-23T10:04:01;18.80;46.80
38265;DHT22;24062;47.480;8.768;2023-03-23T10:06:29;18.80;47.00
38265;DHT22;24062;47.480;8.768;2023-03-23T10:09:00;18.90;47.30
38265;DHT22;24062;47.480;8.768;2023-03-23T10:11:37;19.00;46.70
38265;DHT22;24062;47.480;8.768;2023-03-23T10:14:25;18.90;46.40
38265;DHT22;24062;47.480;8.768;2023-03-23T10:17:00;18.90;45.90
38265;DHT22;24062;47.480;8.768;2023-03-23T10:19:34;18.80;46.50
38265;DHT22;24062;47.480;8.768;2023-03-23T10:22:04;18.80;46.10
38265;DHT22;24062;47.480;8.768;2023-03-23T10:24:38;18.70;46.20
38265;DHT22;24062;47.480;8.768;2023-03-23T10:27:17;18.70;46.00
38265;DHT22;24062;47.480;8.768;2023-03-23T10:29:49;18.60;45.80
38265;DHT22;24062;47.480;8.768;2023-03-23T10:32:22;18.50;46.40
38265;DHT22;24062;47.480;8.768;2023-03-23T10:34:53;18.50;47.70
38265;DHT22;24062;47.480;8.768;2023-03-23T10:37:24;18.40;48.10
38265;DHT22;24062;47.480;8.768;2023-03-23T10:39:55;18.20;48.00
38265;DHT22;24062;47.480;8.768;2023-03-23T10:42:24;18.20;47.70
38265;DHT22;24062;47.480;8.768;2023-03-23T10:44:52;18.10;47.70
38265;DHT22;24062;47.480;8.768;2023-03-23T10:47:19;18.00;47.60
38265;DHT22;24062;47.480;8.768;2023-03-23T10:49:49;17.90;47.50
38265;DHT22;24062;47.480;8.768;2023-03-23T10:52:28;17.90;47.50
38265;DHT22;24062;47.480;8.768;2023-03-23T10:55:01;17.80;47.70
38265;DHT22;24062;47.480;8.768;2023-03-23T10:57:31;17.90;47.80
38265;DHT22;24062;47.480;8.768;2023-03-23T11:00:00;18.00;47.80
38265;DHT22;24062;47.480;8.768;2023-03-23T11:02:35;18.10;48.10
38265;DHT22;24062;47.480;8.768;2023-03-23T11:05:07;18.20;47.80
38265;DHT22;24062;47.480;8.768;2023-03-23T11:07:39;18.30;47.90
38265;DHT22;24062;47.480;8.768;2023-03-23T11:10:17;18.40;46.90
38265;DHT22;24062;47.480;8.768;2023-03-23T11:12:46;18.30;47.50
38265;DHT22;24062;47.480;8.768;2023-03-23T11:15:28;18.40;47.30
38265;DHT22;24062;47.480;8.768;2023-03-23T11:18:01;18.50;47.10
38265;DHT22;24062;47.480;8.768;2023-03-23T11:20:35;18.50;46.90
38265;DHT22;24062;47.480;8.768;2023-03-23T11:23:13;18.50;46.50
38265;DHT22;24062;47.480;8.768;2023-03-23T11:25:58;18.40;46.90
38265;DHT22;24062;47.480;8.768;2023-03-23T11:28:29;18.50;47.20
38265;DHT22;24062;47.480;8.768;2023-03-23T11:30:58;18.60;46.60
38265;DHT22;24062;47.480;8.768;2023-03-23T11:33:29;18.70;47.00
38265;DHT22;24062;47.480;8.768;2023-03-23T11:35:57;18.90;46.90
38265;DHT22;24062;47.480;8.768;2023-03-23T11:38:24;19.20;47.60
38265;DHT22;24062;47.480;8.768;2023-03-23T11:40:54;19.60;46.80
38265;DHT22;24062;47.480;8.768;2023-03-23T11:43:23;19.60;46.60
38265;DHT22;24062;47.480;8.768;2023-03-23T11:45:59;19.60;46.70
38265;DHT22;24062;47.480;8.768;2023-03-23T11:48:33;19.90;47.10
38265;DHT22;24062;47.480;8.768;2023-03-23T11:51:05;20.10;46.50
38265;DHT22;24062;47.480;8.768;2023-03-23T11:53:43;20.30;46.60
38265;DHT22;24062;47.480;8.768;2023-03-23T11:56:19;20.40;45.40
38265;DHT22;24062;47.480;8.768;2023-03-23T11:58:49;20.30;46.20
38265;DHT22;24062;47.480;8.768;2023-03-23T12:01:24;20.50;46.80
38265;DHT22;24062;47.480;8.768;2023-03-23T12:04:03;20.60;45.30
38265;DHT22;24062;47.480;8.768;2023-03-23T12:06:43;20.20;45.30
38265;DHT22;24062;47.480;8.768;2023-03-23T12:09:23;20.00;45.10
38265;DHT22;24062;47.480;8.768;2023-03-23T12:12:01;20.00;46.10
38265;DHT22;24062;47.480;8.768;2023-03-23T12:14:37;20.20;45.90
38265;DHT22;24062;47.480;8.768;2023-03-23T12:17:17;20.30;46.00
38265;DHT22;24062;47.480;8.768;2023-03-23T12:19:55;20.60;45.90
38265;DHT22;24062;47.480;8.768;2023-03-23T12:22:34;20.70;46.10
38265;DHT22;24062;47.480;8.768;2023-03-23T12:25:16;21.00;45.60
38265;DHT22;24062;47.480;8.768;2023-03-23T12:27:49;21.10;45.50
38265;DHT22;24062;47.480;8.768;2023-03-23T12:30:29;21.30;45.80
38265;DHT22;24062;47.480;8.768;2023-03-23T12:35:56;21.80;46.10
38265;DHT22;24062;47.480;8.768;2023-03-23T12:38:56;22.10;45.40
38265;DHT22;24062;47.480;8.768;2023-03-23T12:41:28;22.20;44.90
38265;DHT22;24062;47.480;8.768;2023-03-23T12:43:59;22.40;44.10
38265;DHT22;24062;47.480;8.768;2023-03-23T12:46:44;22.00;42.90
38265;DHT22;24062;47.480;8.768;2023-03-23T12:49:18;21.70;43.30
38265;DHT22;24062;47.480;8.768;2023-03-23T12:51:52;21.60;43.30
38265;DHT22;24062;47.480;8.768;2023-03-23T12:54:25;21.40;43.00
38265;DHT22;24062;47.480;8.768;2023-03-23T12:56:58;21.20;42.60
38265;DHT22;24062;47.480;8.768;2023-03-23T12:59:32;20.90;42.00
38265;DHT22;24062;47.480;8.768;2023-03-23T13:02:08;20.50;42.10
38265;DHT22;24062;47.480;8.768;2023-03-23T13:04:40;20.40;42.60
38265;DHT22;24062;47.480;8.768;2023-03-23T13:07:14;20.50;42.90
38265;DHT22;24062;47.480;8.768;2023-03-23T13:09:48;20.40;42.80
38265;DHT22;24062;47.480;8.768;2023-03-23T13:12:18;20.30;43.20
38265;DHT22;24062;47.480;8.768;2023-03-23T13:14:55;20.30;42.50
38265;DHT22;24062;47.480;8.768;2023-03-23T13:17:35;20.20;42.40
38265;DHT22;24062;47.480;8.768;2023-03-23T13:20:40;20.20;42.60
38265;DHT22;24062;47.480;8.768;2023-03-23T13:23:14;20.50;42.70
38265;DHT22;24062;47.480;8.768;2023-03-23T13:25:54;20.30;42.80
38265;DHT22;24062;47.480;8.768;2023-03-23T13:28:25;20.30;43.00
38265;DHT22;24062;47.480;8.768;2023-03-23T13:30:59;20.30;42.60
38265;DHT22;24062;47.480;8.768;2023-03-23T13:33:31;20.00;42.70
38265;DHT22;24062;47.480;8.768;2023-03-23T13:36:13;19.90;42.80
38265;DHT22;24062;47.480;8.768;2023-03-23T13:38:46;19.70;42.80
38265;DHT22;24062;47.480;8.768;2023-03-23T13:41:16;19.50;43.30
38265;DHT22;24062;47.480;8.768;2023-03-23T13:43:44;19.40;43.80
38265;DHT22;24062;47.480;8.768;2023-03-23T13:46:23;19.40;44.20
38265;DHT22;24062;47.480;8.768;2023-03-23T13:49:15;19.20;43.50
38265;DHT22;24062;47.480;8.768;2023-03-23T13:51:56;19.10;43.80
38265;DHT22;24062;47.480;8.768;2023-03-23T13:54:29;19.10;45.00
38265;DHT22;24062;47.480;8.768;2023-03-23T13:56:58;19.00;45.40
38265;DHT22;24062;47.480;8.768;2023-03-23T13:59:34;18.90;45.70
38265;DHT22;24062;47.480;8.768;2023-03-23T14:02:28;18.90;46.50
38265;DHT22;24062;47.480;8.768;2023-03-23T14:05:07;18.90;46.60
38265;DHT22;24062;47.480;8.768;2023-03-23T14:07:51;18.80;46.70
38265;DHT22;24062;47.480;8.768;2023-03-23T14:10:19;18.80;47.00
38265;DHT22;24062;47.480;8.768;2023-03-23T14:12:48;18.80;47.10
38265;DHT22;24062;47.480;8.768;2023-03-23T14:15:16;18.90;47.10
38265;DHT22;24062;47.480;8.768;2023-03-23T14:17:44;18.90;47.20
38265;DHT22;24062;47.480;8.768;2023-03-23T14:20:19;18.90;47.50
38265;DHT22;24062;47.480;8.768;2023-03-23T14:22:53;18.90;48.20
38265;DHT22;24062;47.480;8.768;2023-03-23T14:25:22;19.00;48.70
38265;DHT22;24062;47.480;8.768;2023-03-23T14:27:53;19.10;49.10
38265;DHT22;24062;47.480;8.768;2023-03-23T14:30:22;19.20;48.50
38265;DHT22;24062;47.480;8.768;2023-03-23T14:32:51;19.20;48.10
38265;DHT22;24062;47.480;8.768;2023-03-23T14:35:25;19.10;48.60
38265;DHT22;24062;47.480;8.768;2023-03-23T14:37:53;19.10;47.90
38265;DHT22;24062;47.480;8.768;2023-03-23T14:40:20;19.00;48.00
38265;DHT22;24062;47.480;8.768;2023-03-23T14:42:47;18.90;47.40
38265;DHT22;24062;47.480;8.768;2023-03-23T14:45:19;18.80;47.50
38265;DHT22;24062;47.480;8.768;2023-03-23T14:47:48;18.70;47.60
38265;DHT22;24062;47.480;8.768;2023-03-23T14:50:26;18.80;47.30
38265;DHT22;24062;47.480;8.768;2023-03-23T14:52:58;18.80;47.60
38265;DHT22;24062;47.480;8.768;2023-03-23T14:55:26;18.90;47.50
38265;DHT22;24062;47.480;8.768;2023-03-23T14:58:05;18.80;47.40
38265;DHT22;24062;47.480;8.768;2023-03-23T15:00:36;18.80;47.30
38265;DHT22;24062;47.480;8.768;2023-03-23T15:03:10;18.90;46.90
38265;DHT22;24062;47.480;8.768;2023-03-23T15:05:45;18.80;46.70
38265;DHT22;24062;47.480;8.768;2023-03-23T15:08:18;18.70;46.50
38265;DHT22;24062;47.480;8.768;2023-03-23T15:10:52;18.70;46.50
38265;DHT22;24062;47.480;8.768;2023-03-23T15:13:20;18.70;46.30
38265;DHT22;24062;47.480;8.768;2023-03-23T15:15:47;18.60;46.50
38265;DHT22;24062;47.480;8.768;2023-03-23T15:18:28;18.60;46.50
38265;DHT22;24062;47.480;8.768;2023-03-23T15:20:57;18.60;46.50
38265;DHT22;24062;47.480;8.768;2023-03-23T15:23:28;18.70;46.60
38265;DHT22;24062;47.480;8.768;2023-03-23T15:25:56;18.80;46.80
38265;DHT22;24062;47.480;8.768;2023-03-23T15:28:29;18.90;46.30
38265;DHT22;24062;47.480;8.768;2023-03-23T15:31:00;18.80;46.20
38265;DHT22;24062;47.480;8.768;2023-03-23T15:33:33;18.70;46.10
38265;DHT22;24062;47.480;8.768;2023-03-23T15:36:07;18.50;45.70
38265;DHT22;24062;47.480;8.768;2023-03-23T15:38:35;18.40;46.20
38265;DHT22;24062;47.480;8.768;2023-03-23T15:41:05;18.40;46.00
38265;DHT22;24062;47.480;8.768;2023-03-23T15:43:33;18.30;45.90
38265;DHT22;24062;47.480;8.768;2023-03-23T15:46:02;18.20;46.20
38265;DHT22;24062;47.480;8.768;2023-03-23T15:48:31;18.10;46.20
38265;DHT22;24062;47.480;8.768;2023-03-23T15:51:01;18.20;46.20
38265;DHT22;24062;47.480;8.768;2023-03-23T15:53:31;18.20;46.30
38265;DHT22;24062;47.480;8.768;2023-03-23T15:56:00;18.20;46.30
38265;DHT22;24062;47.480;8.768;2023-03-23T15:58:28;18.10;46.20
38265;DHT22;24062;47.480;8.768;2023-03-23T16:00:55;18.10;46.50